createdAt,value
2022-09-15T00:02:27.810Z,71.03
2022-09-15T00:04:57.732Z,70.64
2022-09-15T00:07:28.633Z,71.12
2022-09-15T00:09:57.859Z,71.01
2022-09-15T00:12:27.874Z,71.06
2022-09-15T00:14:57.063Z,71.27
2022-09-15T00:17:26.827Z,71.15
2022-09-15T00:19:57.375Z,71.21
2022-09-15T00:22:27.983Z,71.30
2022-09-15T00:24:57.335Z,71.27
2022-09-15T00:27:26.727Z,71.41
2022-09-15T00:29:56.301Z,71.39
2022-09-15T00:32:25.682Z,71.39
2022-09-15T00:34:54.941Z,71.61
2022-09-15T00:37:24.389Z,71.64
2022-09-15T00:39:55.646Z,71.45
2022-09-15T00:42:25.331Z,71.64
2022-09-15T00:44:57.654Z,71.82
2022-09-15T00:47:30.473Z,71.58
2022-09-15T00:50:03.532Z,71.75
2022-09-15T00:52:38.988Z,71.51
2022-09-15T00:55:13.818Z,71.62
2022-09-15T00:57:47.442Z,71.80
2022-09-15T01:00:19.683Z,71.78
2022-09-15T01:02:50.619Z,71.89
2022-09-15T01:05:22.645Z,71.85
2022-09-15T01:07:57.532Z,72.11
2022-09-15T01:10:31.346Z,71.87
2022-09-15T01:13:02.884Z,71.98
2022-09-15T01:15:41.307Z,72.17
2022-09-15T01:18:19.546Z,72.22
2022-09-15T01:21:06.584Z,72.04
2022-09-15T01:24:26.434Z,72.09
2022-09-15T01:27:37.840Z,72.13
2022-09-15T01:30:10.283Z,72.23
2022-09-15T01:33:05.247Z,72.49
2022-09-15T01:35:52.723Z,72.57
2022-09-15T01:38:35.586Z,72.49
2022-09-15T01:41:10.552Z,72.53
2022-09-15T01:43:45.641Z,73.18
2022-09-15T01:46:18.511Z,73.02
2022-09-15T01:48:50.556Z,73.08
2022-09-15T01:51:20.616Z,73.12
2022-09-15T01:53:52.630Z,73.10
2022-09-15T01:56:21.921Z,73.27
2022-09-15T01:58:52.351Z,72.88
2022-09-15T02:01:31.806Z,73.23
2022-09-15T02:04:06.145Z,73.41
2022-09-15T02:06:43.259Z,73.44
2022-09-15T02:09:18.202Z,73.44
2022-09-15T02:11:55.409Z,73.63
2022-09-15T02:14:48.193Z,73.52
2022-09-15T02:17:22.083Z,73.52
2022-09-15T02:19:55.437Z,73.46
2022-09-15T02:22:27.884Z,73.57
2022-09-15T02:25:02.900Z,73.37
2022-09-15T02:27:37.803Z,73.57
2022-09-15T02:30:11.776Z,73.55
2022-09-15T02:32:48.168Z,73.59
2022-09-15T02:35:19.314Z,73.67
2022-09-15T02:37:49.621Z,73.56
2022-09-15T02:40:19.648Z,73.78
2022-09-15T02:42:55.867Z,73.56
2022-09-15T02:45:25.889Z,73.68
2022-09-15T02:47:57.896Z,73.49
2022-09-15T02:50:27.836Z,73.46
2022-09-15T02:52:57.748Z,73.64
2022-09-15T02:55:27.423Z,73.61
2022-09-15T02:57:56.890Z,73.91
2022-09-15T03:00:27.259Z,74.13
2022-09-15T03:02:58.409Z,74.23
2022-09-15T03:05:29.900Z,74.48
2022-09-15T03:07:59.231Z,74.02
2022-09-15T03:10:29.381Z,74.10
2022-09-15T03:12:58.587Z,74.22
2022-09-15T03:15:28.412Z,74.22
2022-09-15T03:17:59.188Z,74.18
2022-09-15T03:20:30.184Z,74.02
2022-09-15T03:22:59.547Z,74.23
2022-09-15T03:25:28.985Z,74.04
2022-09-15T03:27:58.272Z,73.96
2022-09-15T03:30:27.634Z,73.97
2022-09-15T03:32:58.214Z,74.51
2022-09-15T03:35:27.443Z,74.42
2022-09-15T03:37:56.832Z,74.54
2022-09-15T03:40:26.002Z,74.29
2022-09-15T03:42:55.212Z,74.50
2022-09-15T03:45:24.604Z,74.35
2022-09-15T03:47:53.762Z,74.29
2022-09-15T03:50:24.387Z,74.54
2022-09-15T03:52:58.200Z,74.70
2022-09-15T03:55:28.334Z,74.70
2022-09-15T03:57:57.925Z,74.68
2022-09-15T04:00:27.213Z,75.04
2022-09-15T04:02:56.427Z,75.23
2022-09-15T04:05:27.316Z,75.17
2022-09-15T04:07:56.526Z,75.21
2022-09-15T04:10:25.711Z,75.19
2022-09-15T04:12:55.349Z,75.64
2022-09-15T04:15:25.083Z,75.84
2022-09-15T04:17:54.282Z,75.89
2022-09-15T04:20:23.655Z,75.83
2022-09-15T04:22:54.261Z,75.84
2022-09-15T04:25:24.736Z,76.19
2022-09-15T04:27:54.092Z,75.98
2022-09-15T04:30:23.271Z,76.51
2022-09-15T04:32:52.501Z,76.30
2022-09-15T04:35:22.034Z,77.12
2022-09-15T04:37:51.610Z,76.58
2022-09-15T04:40:22.214Z,77.18
2022-09-15T04:42:52.827Z,76.81
2022-09-15T04:45:22.006Z,76.58
2022-09-15T04:47:51.710Z,77.24
2022-09-15T04:50:21.242Z,77.25
2022-09-15T04:52:50.413Z,77.44
2022-09-15T04:55:19.585Z,76.91
2022-09-15T04:57:50.349Z,77.02
2022-09-15T05:00:19.676Z,77.72
2022-09-15T05:02:48.857Z,77.29
2022-09-15T05:05:19.439Z,77.57
2022-09-15T05:07:49.628Z,77.33
2022-09-15T05:10:19.281Z,77.75
2022-09-15T05:12:50.060Z,77.84
2022-09-15T05:15:19.281Z,77.63
2022-09-15T05:17:49.811Z,77.19
2022-09-15T05:20:19.383Z,78.38
2022-09-15T05:22:48.652Z,78.25
2022-09-15T05:25:17.981Z,77.95
2022-09-15T05:27:47.552Z,78.32
2022-09-15T05:30:44.767Z,77.89
2022-09-15T05:33:08.103Z,78.04
2022-09-15T05:35:37.287Z,78.37
2022-09-15T05:38:06.489Z,78.35
2022-09-15T05:40:35.926Z,78.55
2022-09-15T05:43:05.144Z,78.27
2022-09-15T05:45:35.983Z,78.26
2022-09-15T05:48:06.092Z,78.75
2022-09-15T05:50:35.249Z,78.65
2022-09-15T05:53:04.716Z,78.23
2022-09-15T05:55:39.111Z,78.61
2022-09-15T05:58:08.305Z,78.25
2022-09-15T06:00:40.402Z,78.14
2022-09-15T06:03:15.002Z,78.29
2022-09-15T06:05:44.710Z,78.98
2022-09-15T06:08:14.527Z,78.56
2022-09-15T06:10:44.218Z,78.31
2022-09-15T06:13:13.619Z,78.29
2022-09-15T06:15:44.276Z,78.32
2022-09-15T06:18:13.801Z,78.11
2022-09-15T06:20:43.245Z,77.92
2022-09-15T06:23:12.464Z,78.18
2022-09-15T06:25:41.623Z,78.20
2022-09-15T06:28:11.054Z,77.96
2022-09-15T06:30:41.185Z,78.01
2022-09-15T06:33:11.522Z,77.93
2022-09-15T06:35:41.020Z,77.96
2022-09-15T06:38:10.210Z,77.78
2022-09-15T06:40:39.423Z,78.28
2022-09-15T06:43:08.859Z,78.11
2022-09-15T06:45:38.088Z,77.96
2022-09-15T06:48:23.550Z,78.10
2022-09-15T06:50:57.388Z,78.88
2022-09-15T06:53:26.574Z,78.35
2022-09-15T06:55:55.818Z,78.36
2022-09-15T06:58:25.024Z,77.95
2022-09-15T07:00:54.444Z,77.93
2022-09-15T07:03:23.941Z,77.82
2022-09-15T07:05:53.539Z,77.49
2022-09-15T07:08:24.083Z,77.65
2022-09-15T07:10:54.976Z,77.51
2022-09-15T07:13:24.719Z,77.25
2022-09-15T07:15:55.088Z,77.35
2022-09-15T07:18:24.923Z,77.21
2022-09-15T07:20:59.188Z,77.25
2022-09-15T07:23:30.103Z,77.01
2022-09-15T07:26:10.380Z,77.03
2022-09-15T07:28:41.995Z,76.85
2022-09-15T08:09:07.363Z,73.56
2022-09-15T08:11:36.707Z,72.86
2022-09-15T08:14:05.745Z,72.35
2022-09-15T08:25:52.838Z,71.31
2022-09-15T08:28:22.348Z,70.79
2022-09-15T08:30:51.714Z,70.94
2022-09-15T08:33:21.240Z,69.89
2022-09-15T08:35:50.577Z,70.00
2022-09-15T08:38:19.716Z,69.44
2022-09-15T08:40:49.482Z,69.50
2022-09-15T08:43:25.030Z,69.40
2022-09-15T08:45:57.383Z,69.26
2022-09-15T08:48:32.549Z,68.62
2022-09-15T08:51:06.560Z,68.33
2022-09-15T08:53:42.393Z,68.76
2022-09-15T08:56:17.155Z,68.56
2022-09-15T08:58:48.059Z,68.85
2022-09-15T09:01:27.653Z,68.86
2022-09-15T09:04:17.537Z,68.64
2022-09-15T09:06:58.374Z,68.67
2022-09-15T09:09:35.700Z,68.62
2022-09-15T09:12:22.057Z,68.44
2022-09-15T09:15:12.820Z,68.38
2022-09-15T09:18:12.113Z,68.33
2022-09-15T09:20:50.552Z,68.31
2022-09-15T09:23:24.965Z,68.22
2022-09-15T09:25:56.095Z,67.79
2022-09-15T09:28:31.765Z,67.58
2022-09-15T09:31:08.316Z,67.72
2022-09-15T09:33:47.756Z,67.67
2022-09-15T09:36:17.634Z,67.89
2022-09-15T09:38:49.880Z,67.70
2022-09-15T09:41:25.561Z,67.73
2022-09-15T09:43:57.101Z,67.70
2022-09-15T09:46:29.072Z,66.92
2022-09-15T09:49:03.659Z,66.91
2022-09-15T09:51:39.186Z,66.86
2022-09-15T09:54:15.437Z,64.44
2022-09-15T09:56:45.117Z,66.14
2022-09-15T09:59:40.428Z,65.41
2022-09-15T10:02:19.577Z,64.67
2022-09-15T10:04:50.836Z,64.40
2022-09-15T10:07:22.847Z,64.63
2022-09-15T10:09:57.303Z,63.73
2022-09-15T10:12:32.514Z,64.33
2022-09-15T10:15:04.469Z,64.46
2022-09-15T10:17:44.165Z,63.65
2022-09-15T10:20:28.343Z,64.18
2022-09-15T10:23:05.426Z,63.94
2022-09-15T10:25:57.547Z,63.32
2022-09-15T10:28:28.057Z,63.59
2022-09-15T10:31:06.935Z,63.07
2022-09-15T10:33:38.983Z,63.01
2022-09-15T10:36:13.804Z,62.27
2022-09-15T10:38:46.762Z,62.13
2022-09-15T10:41:24.680Z,61.51
2022-09-15T10:44:10.996Z,59.79
2022-09-15T10:46:49.859Z,59.71
2022-09-15T10:49:38.704Z,58.08
2022-09-15T10:52:19.921Z,57.81
2022-09-15T10:55:08.932Z,56.95
2022-09-15T10:57:59.707Z,57.94
2022-09-15T11:00:35.228Z,57.66
2022-09-15T11:03:24.356Z,57.11
2022-09-15T11:06:10.941Z,56.56
2022-09-15T11:08:55.224Z,55.51
2022-09-15T11:11:33.148Z,57.17
2022-09-15T11:14:16.499Z,56.98
2022-09-15T11:16:58.303Z,56.66
2022-09-15T11:19:56.374Z,57.27
2022-09-15T11:22:32.927Z,57.39
2022-09-15T11:25:05.661Z,57.07
2022-09-15T11:27:38.613Z,55.83
2022-09-15T11:30:16.756Z,56.89
2022-09-15T11:32:52.940Z,57.52
2022-09-15T11:35:39.191Z,57.10
2022-09-15T11:38:34.391Z,56.92
2022-09-15T11:41:17.461Z,57.48
2022-09-15T11:44:16.016Z,56.01
2022-09-15T11:47:08.778Z,57.90
2022-09-15T11:49:44.244Z,59.11
2022-09-15T11:52:23.691Z,60.06
2022-09-15T11:55:01.024Z,60.30
2022-09-15T11:57:37.830Z,60.90
2022-09-15T12:00:13.738Z,61.59
2022-09-15T12:02:51.419Z,60.96
2022-09-15T12:05:25.595Z,61.10
2022-09-15T12:07:59.547Z,60.90
2022-09-15T12:10:37.937Z,60.56
2022-09-15T12:13:09.067Z,59.67
2022-09-15T12:15:39.653Z,59.65
2022-09-15T12:18:37.445Z,57.50
2022-09-15T12:21:13.884Z,58.33
2022-09-15T12:23:46.618Z,57.89
2022-09-15T12:26:21.079Z,57.06
2022-09-15T12:28:56.185Z,54.83
2022-09-15T12:31:32.459Z,55.27
2022-09-15T12:34:04.760Z,54.38
2022-09-15T12:36:46.914Z,54.85
2022-09-15T12:39:25.563Z,52.92
2022-09-15T12:42:05.484Z,52.79
2022-09-15T12:44:38.306Z,52.93
2022-09-15T12:47:18.808Z,50.61
2022-09-15T12:49:51.740Z,51.88
2022-09-15T12:52:22.868Z,52.16
2022-09-15T12:54:57.218Z,51.66
2022-09-15T12:57:33.006Z,52.30
2022-09-15T13:00:31.827Z,51.76
2022-09-15T13:03:01.933Z,52.73
2022-09-15T13:06:16.601Z,51.66
2022-09-15T13:08:54.331Z,52.91
2022-09-15T13:11:38.792Z,53.72
2022-09-15T13:14:21.809Z,53.18
2022-09-15T13:16:56.735Z,54.01
2022-09-15T13:19:40.997Z,54.41
2022-09-15T13:22:22.403Z,55.12
2022-09-15T13:25:01.409Z,55.05
2022-09-15T13:27:37.137Z,55.17
2022-09-15T13:30:25.376Z,54.97
2022-09-15T13:33:03.265Z,55.22
2022-09-15T13:35:59.456Z,55.18
2022-09-15T13:38:48.584Z,55.00
2022-09-15T13:41:43.063Z,55.10
2022-09-15T13:44:52.513Z,55.85
2022-09-15T13:47:39.461Z,55.90
2022-09-15T13:50:16.086Z,55.84
2022-09-15T13:53:16.721Z,56.08
2022-09-15T13:55:46.585Z,55.60
2022-09-15T14:01:08.443Z,55.79
2022-09-15T14:03:44.794Z,56.11
2022-09-15T14:06:18.158Z,56.24
2022-09-15T14:08:51.169Z,56.85
2022-09-15T14:11:29.990Z,56.69
2022-09-15T14:14:00.686Z,57.14
2022-09-15T14:16:35.663Z,57.29
2022-09-15T14:19:32.426Z,56.96
2022-09-15T14:22:02.273Z,57.51
2022-09-15T14:24:34.114Z,57.05
2022-09-15T14:27:10.920Z,56.75
2022-09-15T14:29:42.897Z,56.45
2022-09-15T14:32:17.007Z,56.63
2022-09-15T14:37:27.620Z,56.90
2022-09-15T14:39:58.791Z,56.92
2022-09-15T14:42:31.094Z,56.77
2022-09-15T14:48:08.032Z,55.13
2022-09-15T14:50:39.252Z,53.55
2022-09-15T14:53:11.905Z,53.76
2022-09-15T14:55:51.442Z,53.54
2022-09-15T14:58:27.025Z,53.60
2022-09-15T15:01:02.190Z,53.05
2022-09-15T15:03:39.631Z,53.64
2022-09-15T15:06:28.959Z,53.58
2022-09-15T15:09:52.788Z,53.30
2022-09-15T15:12:35.683Z,51.43
2022-09-15T15:15:06.127Z,51.44
2022-09-15T15:17:38.069Z,51.52
2022-09-15T15:20:19.494Z,50.17
2022-09-15T15:23:12.168Z,50.59
2022-09-15T15:25:41.851Z,51.04
2022-09-15T15:28:31.745Z,49.71
2022-09-15T15:31:16.604Z,49.84
2022-09-15T15:33:50.400Z,50.33
2022-09-15T15:36:23.951Z,49.88
2022-09-15T15:38:57.532Z,48.10
2022-09-15T15:41:29.288Z,49.16
2022-09-15T15:44:07.885Z,49.87
2022-09-15T15:46:51.844Z,49.88
2022-09-15T15:49:25.798Z,48.85
2022-09-15T15:51:56.033Z,49.84
2022-09-15T15:54:28.121Z,50.25
2022-09-15T15:57:05.472Z,50.37
2022-09-15T15:59:34.781Z,50.36
2022-09-15T16:02:04.051Z,50.24
2022-09-15T16:04:33.230Z,50.26
2022-09-15T16:07:02.562Z,51.08
2022-09-15T16:09:33.740Z,50.81
2022-09-15T16:12:03.192Z,50.92
2022-09-15T16:14:32.510Z,51.83
2022-09-15T16:17:01.602Z,51.92
2022-09-15T16:19:30.898Z,51.85
2022-09-15T16:22:02.382Z,52.53
2022-09-15T16:24:33.305Z,52.85
2022-09-15T16:27:04.539Z,53.28
2022-09-15T16:29:36.342Z,53.42
2022-09-15T16:32:07.287Z,53.61
2022-09-15T16:34:36.526Z,54.23
2022-09-15T16:37:05.690Z,54.45
2022-09-15T16:39:36.460Z,54.56
2022-09-15T16:42:06.037Z,54.70
2022-09-15T16:44:35.610Z,54.62
2022-09-15T16:47:05.915Z,54.76
2022-09-15T16:49:37.444Z,54.99
2022-09-15T16:52:06.925Z,55.22
2022-09-15T16:54:37.496Z,55.81
2022-09-15T16:57:06.657Z,55.79
2022-09-15T16:59:36.108Z,56.09
2022-09-15T17:02:06.971Z,56.02
2022-09-15T17:04:36.336Z,55.68
2022-09-15T17:07:05.510Z,56.20
2022-09-15T17:09:36.105Z,56.21
2022-09-15T17:12:05.857Z,56.41
2022-09-15T17:14:35.049Z,56.67
2022-09-15T17:17:04.973Z,56.90
2022-09-15T17:19:34.273Z,56.94
2022-09-15T17:22:03.661Z,56.96
2022-09-15T17:24:32.814Z,57.25
2022-09-15T17:27:03.887Z,57.49
2022-09-15T17:29:33.107Z,57.25
2022-09-15T17:32:02.417Z,57.18
2022-09-15T17:34:31.762Z,57.81
2022-09-15T17:37:00.871Z,58.15
2022-09-15T17:39:30.006Z,58.08
2022-09-15T17:41:59.424Z,57.86
2022-09-15T17:44:32.188Z,58.05
2022-09-15T17:47:03.884Z,57.87
2022-09-15T17:49:33.088Z,57.93
2022-09-15T17:52:02.182Z,58.24
2022-09-15T17:54:31.652Z,58.19
2022-09-15T17:57:00.753Z,58.34
2022-09-15T17:59:31.298Z,58.31
2022-09-15T18:02:00.687Z,58.52
2022-09-15T18:04:29.971Z,58.73
2022-09-15T18:06:59.101Z,58.40
2022-09-15T18:09:28.479Z,58.71
2022-09-15T18:11:57.577Z,58.81
2022-09-15T18:14:26.813Z,58.96
2022-09-15T18:16:57.720Z,59.04
2022-09-15T18:19:26.850Z,59.17
2022-09-15T18:21:56.277Z,59.21
2022-09-15T18:24:25.900Z,59.56
2022-09-15T18:26:55.173Z,59.57
2022-09-15T18:29:24.365Z,59.95
2022-09-15T18:31:58.114Z,59.86
2022-09-15T18:34:27.245Z,59.92
2022-09-15T18:36:56.905Z,59.79
2022-09-15T18:39:27.502Z,60.00
2022-09-15T18:41:56.803Z,60.22
2022-09-15T18:44:27.660Z,60.09
2022-09-15T18:46:58.522Z,60.16
2022-09-15T18:49:27.844Z,60.29
2022-09-15T18:51:56.978Z,60.71
2022-09-15T18:54:26.320Z,60.89
2022-09-15T18:56:55.975Z,60.95
2022-09-15T18:59:25.163Z,60.82
2022-09-15T19:01:55.009Z,60.98
2022-09-15T19:04:31.062Z,61.04
2022-09-15T19:07:02.005Z,61.04
2022-09-15T19:09:31.711Z,61.15
2022-09-15T19:12:02.427Z,61.24
2022-09-15T19:14:32.273Z,61.51
2022-09-15T19:17:01.773Z,61.48
2022-09-15T19:19:33.804Z,61.66
2022-09-15T19:22:03.394Z,61.97
2022-09-15T19:24:35.277Z,61.75
2022-09-15T19:27:05.792Z,62.60
2022-09-15T19:29:36.642Z,62.22
2022-09-15T19:32:09.128Z,62.22
2022-09-15T19:34:41.966Z,62.51
2022-09-15T19:37:16.462Z,62.62
2022-09-15T19:39:48.486Z,62.58
2022-09-15T19:42:18.623Z,62.69
2022-09-15T19:44:49.504Z,62.66
2022-09-15T19:47:18.868Z,63.05
2022-09-15T19:49:49.565Z,63.06
2022-09-15T19:52:18.762Z,63.38
2022-09-15T19:54:48.490Z,62.91
2022-09-15T19:57:17.731Z,63.43
2022-09-15T19:59:47.736Z,63.37
2022-09-15T20:02:18.226Z,63.22
2022-09-15T20:07:53.519Z,63.85
2022-09-15T20:10:30.789Z,63.99
2022-09-15T20:13:00.303Z,64.24
2022-09-15T20:15:29.892Z,64.09
2022-09-15T20:18:31.298Z,64.61
2022-09-15T20:21:06.440Z,64.54
2022-09-15T20:23:38.437Z,64.94
2022-09-15T20:26:13.533Z,65.03
2022-09-15T20:28:44.819Z,65.40
2022-09-15T20:31:14.985Z,65.04
2022-09-15T20:33:46.762Z,66.17
2022-09-15T20:36:44.055Z,67.36
2022-09-15T20:39:16.114Z,67.29
2022-09-15T20:41:45.988Z,67.52
2022-09-15T20:44:15.613Z,67.64
2022-09-15T20:46:47.555Z,67.64
2022-09-15T20:49:18.334Z,67.27
2022-09-15T20:51:51.641Z,66.59
2022-09-15T20:54:21.782Z,66.59
2022-09-15T20:59:53.954Z,67.00
2022-09-15T21:02:23.247Z,66.85
2022-09-15T21:04:53.606Z,67.14
2022-09-15T21:07:24.174Z,67.08
2022-09-15T21:09:53.512Z,67.14
2022-09-15T21:12:22.717Z,67.20
2022-09-15T21:14:51.982Z,66.91
2022-09-15T21:17:21.818Z,67.51
2022-09-15T21:19:51.072Z,67.97
2022-09-15T21:22:20.230Z,67.49
2022-09-15T21:24:51.026Z,67.79
2022-09-15T21:27:30.061Z,68.17
2022-09-15T21:29:59.395Z,67.68
2022-09-15T21:32:29.825Z,67.52
2022-09-15T21:35:00.109Z,67.93
2022-09-15T21:37:29.456Z,67.65
2022-09-15T21:40:00.081Z,68.23
2022-09-15T21:42:29.556Z,68.16
2022-09-15T21:44:58.863Z,68.33
2022-09-15T21:47:28.001Z,68.13
2022-09-15T21:49:57.167Z,69.21
2022-09-15T21:52:26.697Z,69.23
2022-09-15T21:54:55.896Z,68.70
2022-09-15T21:57:26.926Z,69.18
2022-09-15T21:59:56.308Z,69.54
2022-09-15T22:02:25.587Z,68.79
2022-09-15T22:04:56.486Z,68.80
2022-09-15T22:07:25.918Z,68.38
2022-09-15T22:09:56.216Z,68.92
2022-09-15T22:12:26.819Z,69.04
2022-09-15T22:14:56.225Z,68.63
2022-09-15T22:17:25.888Z,69.15
2022-09-15T22:19:55.304Z,68.91
2022-09-15T22:22:24.921Z,69.12
2022-09-15T22:24:54.002Z,68.83
2022-09-15T22:27:23.139Z,69.18
2022-09-15T22:29:53.948Z,68.92
2022-09-15T22:32:23.080Z,69.37
2022-09-15T22:34:52.978Z,68.92
2022-09-15T22:37:26.993Z,70.29
2022-09-15T22:39:59.602Z,69.77
2022-09-15T22:42:29.320Z,69.45
2022-09-15T22:45:00.078Z,69.84
2022-09-15T22:47:29.499Z,69.65
2022-09-15T22:49:58.602Z,69.45
2022-09-15T22:52:27.746Z,70.65
2022-09-15T22:54:57.126Z,70.19
2022-09-15T22:57:26.391Z,69.86
2022-09-15T22:59:55.475Z,70.42
2022-09-15T23:02:26.280Z,70.57
2022-09-15T23:04:55.434Z,70.46
2022-09-15T23:07:24.529Z,71.15
2022-09-15T23:09:54.932Z,71.98
2022-09-15T23:12:24.351Z,71.54
2022-09-15T23:14:53.451Z,71.60
2022-09-15T23:17:22.893Z,72.91
2022-09-15T23:19:53.480Z,72.65
2022-09-15T23:22:23.396Z,72.36
2022-09-15T23:24:52.693Z,72.80
2022-09-15T23:27:22.114Z,72.08
2022-09-15T23:29:51.298Z,72.43
2022-09-15T23:32:20.608Z,72.03
2022-09-15T23:34:49.975Z,72.39
2022-09-15T23:37:20.541Z,71.94
2022-09-15T23:39:49.892Z,72.97
2022-09-15T23:42:19.238Z,72.54
2022-09-15T23:44:48.442Z,71.76
2022-09-15T23:47:17.735Z,72.53
2022-09-15T23:49:47.037Z,72.64
2022-09-15T23:52:16.230Z,72.59
2022-09-15T23:54:46.938Z,72.16
2022-09-15T23:57:16.045Z,72.02
2022-09-15T23:59:45.161Z,71.80
